Time;durP1;ratioP1;P1;durP2;ratioP2;P2;SDS_P1;SDS_P2;PMS_P1;PMS_P2;Temp;Humidity;BMP_temperature;BMP_pressure;BME280_temperature;BME280_humidity;BME280_pressure;Samples;Min_cycle;Max_cycle;Signal;HPM_P1;HPM_P2
2021/04/05 00:01:23;;;;;;;20.27;8.93;;;;;;;;;;5075431;28;20013;-65
2021/04/05 00:03:48;;;;;;;17.83;8.65;;;;;;;;;;5057599;28;20472;-65
2021/04/05 00:06:14;;;;;;;16.25;8.32;;;;;;;;;;5074372;28;20044;-65
2021/04/05 00:08:39;;;;;;;21.20;9.93;;;;;;;;;;5075091;28;20047;-65
2021/04/05 00:11:04;;;;;;;21.88;9.45;;;;;;;;;;5057131;28;20033;-65
2021/04/05 00:13:32;;;;;;;21.90;9.60;;;;;;;;;;5058120;28;20021;-65
2021/04/05 00:15:58;;;;;;;22.05;9.98;;;;;;;;;;5057210;28;20021;-65
2021/04/05 00:18:25;;;;;;;25.50;10.43;;;;;;;;;;5075072;28;20492;-65
2021/04/05 00:20:53;;;;;;;23.58;10.30;;;;;;;;;;5074717;28;20020;-65
2021/04/05 00:23:18;;;;;;;19.63;9.57;;;;;;;;;;5074723;28;20020;-65
2021/04/05 00:25:44;;;;;;;22.17;9.45;;;;;;;;;;5056932;28;20028;-65
2021/04/05 00:28:10;;;;;;;23.65;8.88;;;;;;;;;;5082396;22;20102;-65
2021/04/05 00:30:36;;;;;;;21.80;9.63;;;;;;;;;;5056526;28;20473;-65
2021/04/05 00:33:02;;;;;;;20.88;8.60;;;;;;;;;;5056983;28;20024;-65
2021/04/05 00:35:28;;;;;;;21.90;9.05;;;;;;;;;;5055981;28;20017;-65
2021/04/05 00:37:55;;;;;;;20.15;9.77;;;;;;;;;;5056856;28;20353;-65
2021/04/05 00:40:22;;;;;;;16.88;8.48;;;;;;;;;;5056716;28;20477;-65
2021/04/05 00:42:47;;;;;;;21.33;9.30;;;;;;;;;;5056590;28;20021;-65
2021/04/05 00:45:14;;;;;;;21.13;9.82;;;;;;;;;;5056611;28;20376;-66
2021/04/05 00:47:42;;;;;;;20.55;9.45;;;;;;;;;;5055412;28;20021;-65
2021/04/05 00:50:09;;;;;;;17.38;8.45;;;;;;;;;;5074130;28;20053;-65
2021/04/05 00:52:35;;;;;;;18.98;9.32;;;;;;;;;;5056177;28;20091;-65
2021/04/05 00:55:01;;;;;;;18.60;10.35;;;;;;;;;;5074237;28;20075;-65
2021/04/05 00:57:26;;;;;;;17.52;8.82;;;;;;;;;;5074436;28;20044;-65
2021/04/05 00:59:52;;;;;;;20.13;9.18;;;;;;;;;;5074229;28;20032;-65
2021/04/05 01:02:17;;;;;;;19.60;8.57;;;;;;;;;;5074083;28;20021;-65
2021/04/05 01:04:42;;;;;;;22.15;9.40;;;;;;;;;;5055287;28;20048;-65
2021/04/05 01:07:08;;;;;;;16.58;8.32;;;;;;;;;;5074114;28;20031;-65
2021/04/05 01:09:33;;;;;;;19.70;8.85;;;;;;;;;;5073879;28;20013;-65
2021/04/05 01:11:58;;;;;;;17.48;9.07;;;;;;;;;;5073810;28;20036;-65
2021/04/05 01:14:24;;;;;;;20.38;9.55;;;;;;;;;;5055764;28;20412;-65
2021/04/05 01:16:49;;;;;;;20.65;8.70;;;;;;;;;;5055758;28;20020;-65
2021/04/05 01:19:14;;;;;;;23.67;9.40;;;;;;;;;;5073690;28;20021;-65
2021/04/05 01:21:47;;;;;;;17.08;8.60;;;;;;;;;;5055775;28;20029;-65
2021/04/05 01:24:12;;;;;;;20.40;9.00;;;;;;;;;;5073708;28;20021;-65
2021/04/05 01:26:38;;;;;;;19.77;9.27;;;;;;;;;;5072891;28;20450;-65
2021/04/05 01:31:51;;;;;;;14.13;7.85;;;;;;;;;;5346164;22;20045;-65
2021/04/05 01:34:17;;;;;;;17.95;8.02;;;;;;;;;;5073350;28;20024;-65
2021/04/05 01:36:42;;;;;;;15.90;7.97;;;;;;;;;;5072550;28;20436;-65
2021/04/05 01:39:08;;;;;;;17.77;8.82;;;;;;;;;;5073413;28;20020;-65
2021/04/05 01:41:33;;;;;;;15.95;7.82;;;;;;;;;;5073258;28;20096;-65
2021/04/05 01:43:59;;;;;;;20.90;8.68;;;;;;;;;;5055473;28;20056;-65
2021/04/05 01:46:26;;;;;;;19.00;8.23;;;;;;;;;;5073052;28;20054;-65
2021/04/05 01:48:51;;;;;;;16.45;8.65;;;;;;;;;;5073068;28;20104;-65
2021/04/05 01:51:18;;;;;;;17.40;7.95;;;;;;;;;;5055270;28;20107;-65
2021/04/05 01:53:44;;;;;;;20.42;9.48;;;;;;;;;;5055148;28;20477;-65
2021/04/05 01:56:11;;;;;;;27.70;11.32;;;;;;;;;;5055314;28;20565;-65
2021/04/05 01:58:38;;;;;;;33.50;15.02;;;;;;;;;;5054799;28;20025;-65
2021/04/05 02:01:04;;;;;;;48.10;21.95;;;;;;;;;;5073047;28;20027;-65
2021/04/05 02:03:30;;;;;;;37.00;16.30;;;;;;;;;;5072744;28;20103;-65
2021/04/05 02:05:59;;;;;;;36.63;15.25;;;;;;;;;;5072321;28;20040;-65
2021/04/05 02:08:25;;;;;;;28.00;12.48;;;;;;;;;;5072792;28;20358;-65
2021/04/05 02:10:52;;;;;;;30.27;13.50;;;;;;;;;;5072598;28;20111;-65
2021/04/05 02:13:19;;;;;;;25.83;13.00;;;;;;;;;;5073267;28;20024;-65
2021/04/05 02:15:44;;;;;;;24.70;12.65;;;;;;;;;;5055025;28;20023;-65
2021/04/05 02:18:11;;;;;;;34.20;13.25;;;;;;;;;;5054734;28;20103;-65
2021/04/05 02:20:37;;;;;;;26.80;13.60;;;;;;;;;;5077575;28;20016;-65
2021/04/05 02:23:03;;;;;;;24.65;11.15;;;;;;;;;;5054874;28;20035;-65
2021/04/05 02:25:30;;;;;;;25.73;11.65;;;;;;;;;;5072595;28;20377;-65
2021/04/05 02:27:55;;;;;;;22.60;11.10;;;;;;;;;;5255481;22;20252;-65
2021/04/05 02:30:25;;;;;;;27.98;13.40;;;;;;;;;;5072476;28;20559;-65
2021/04/05 02:32:54;;;;;;;32.08;14.60;;;;;;;;;;5072422;28;20023;-65
2021/04/05 02:35:20;;;;;;;89.53;32.20;;;;;;;;;;5071920;28;20017;-65
2021/04/05 02:37:45;;;;;;;54.58;22.63;;;;;;;;;;5072415;28;20155;-65
2021/04/05 02:40:12;;;;;;;26.85;11.82;;;;;;;;;;5072488;28;20473;-66
2021/04/05 02:42:37;;;;;;;23.00;9.38;;;;;;;;;;5072309;28;20012;-65
2021/04/05 02:45:03;;;;;;;25.85;11.65;;;;;;;;;;5054366;28;20017;-65
2021/04/05 02:47:30;;;;;;;34.58;15.23;;;;;;;;;;5072334;28;20029;-65
2021/04/05 02:49:55;;;;;;;39.13;15.38;;;;;;;;;;5054445;28;20032;-66
2021/04/05 02:52:20;;;;;;;15.48;8.55;;;;;;;;;;5072144;28;20040;-65
2021/04/05 02:54:46;;;;;;;19.08;9.07;;;;;;;;;;5072071;28;20488;-65
2021/04/05 02:57:14;;;;;;;14.98;7.90;;;;;;;;;;5072312;28;20016;-65
2021/04/05 02:59:39;;;;;;;15.88;7.68;;;;;;;;;;5054120;28;20009;-65
2021/04/05 03:02:05;;;;;;;18.85;8.77;;;;;;;;;;5071997;28;20389;-65
2021/04/05 03:04:31;;;;;;;18.00;9.15;;;;;;;;;;5053491;28;20021;-65
2021/04/05 03:06:57;;;;;;;20.92;9.40;;;;;;;;;;5054380;28;20025;-65
2021/04/05 03:09:22;;;;;;;25.40;11.02;;;;;;;;;;5072125;28;20028;-65
2021/04/05 03:11:51;;;;;;;19.98;9.02;;;;;;;;;;5075511;28;20013;-65
2021/04/05 03:14:16;;;;;;;21.85;9.40;;;;;;;;;;5075675;28;20024;-65
2021/04/05 03:16:42;;;;;;;22.83;8.75;;;;;;;;;;5057810;28;20062;-65
2021/04/05 03:19:12;;;;;;;25.50;9.85;;;;;;;;;;5076057;28;20107;-65
2021/04/05 03:21:41;;;;;;;18.52;9.40;;;;;;;;;;5075969;28;20385;-65
2021/04/05 03:24:07;;;;;;;20.40;10.07;;;;;;;;;;5075830;28;20131;-65
2021/04/05 03:26:32;;;;;;;16.13;8.70;;;;;;;;;;5057556;28;20063;-65
2021/04/05 03:37:21;;;;;;;21.40;9.85;;;;;;;;;;5093686;28;20048;-65
2021/04/05 03:39:48;;;;;;;22.75;9.57;;;;;;;;;;5077892;28;20103;-65
2021/04/05 03:42:15;;;;;;;21.63;9.00;;;;;;;;;;5095650;28;20012;-65
2021/04/05 03:44:40;;;;;;;19.40;9.27;;;;;;;;;;5095666;28;20023;-65
2021/04/05 03:47:09;;;;;;;24.02;10.07;;;;;;;;;;5095647;28;20020;-65
2021/04/05 03:49:37;;;;;;;30.15;11.77;;;;;;;;;;5095539;28;20013;-66
2021/04/05 03:52:06;;;;;;;25.67;10.50;;;;;;;;;;5095301;28;20062;-65
2021/04/05 03:54:31;;;;;;;;;;;;;;;;;;5095621;28;20024;-65
2021/04/05 03:56:58;;;;;;;25.70;10.07;;;;;;;;;;5095447;28;20073;-65
2021/04/05 03:59:26;;;;;;;31.40;10.85;;;;;;;;;;5077045;28;20255;-65
2021/04/05 04:01:54;;;;;;;30.70;10.57;;;;;;;;;;5095368;28;20023;-66
2021/04/05 04:04:26;;;;;;;29.03;10.80;;;;;;;;;;5095264;28;20030;-65
2021/04/05 04:07:00;;;;;;;26.25;10.98;;;;;;;;;;5095014;28;20280;-66
2021/04/05 04:09:26;;;;;;;27.23;11.10;;;;;;;;;;5095111;28;20499;-65
2021/04/05 04:11:52;;;;;;;29.75;10.90;;;;;;;;;;5095233;28;20028;-65
2021/04/05 04:14:18;;;;;;;23.50;11.00;;;;;;;;;;5095027;28;20027;-65
2021/04/05 04:16:44;;;;;;;27.40;11.13;;;;;;;;;;5094813;28;20349;-65
2021/04/05 04:19:10;;;;;;;26.80;10.85;;;;;;;;;;5094759;28;20023;-66
2021/04/05 04:21:36;;;;;;;29.75;10.70;;;;;;;;;;5075760;28;20594;-66
2021/04/05 04:24:02;;;;;;;24.48;11.07;;;;;;;;;;5079088;28;20034;-65
2021/04/05 04:26:31;;;;;;;26.23;11.80;;;;;;;;;;5096107;28;20035;-65
2021/04/05 04:28:56;;;;;;;27.35;10.70;;;;;;;;;;5094876;28;20046;-66
2021/04/05 04:31:22;;;;;;;96.47;47.17;;;;;;;;;;5094767;28;20032;-65
2021/04/05 04:33:48;;;;;;;110.90;54.53;;;;;;;;;;5094647;28;20016;-65
2021/04/05 04:36:20;;;;;;;87.18;42.90;;;;;;;;;;5093884;28;20047;-65
2021/04/05 04:38:45;;;;;;;119.50;59.15;;;;;;;;;;5059614;28;20012;-65
2021/04/05 04:41:11;;;;;;;74.28;33.28;;;;;;;;;;5094616;28;20027;-65
2021/04/05 04:43:36;;;;;;;109.50;50.35;;;;;;;;;;5094481;28;20012;-65
2021/04/05 04:46:05;;;;;;;50.30;24.33;;;;;;;;;;5094564;28;20101;-65
2021/04/05 04:48:30;;;;;;;42.45;20.48;;;;;;;;;;5094154;28;20354;-65
2021/04/05 04:50:56;;;;;;;29.45;15.18;;;;;;;;;;5094396;28;20111;-66
2021/04/05 04:53:21;;;;;;;24.98;10.32;;;;;;;;;;5076198;28;20020;-65
2021/04/05 04:55:47;;;;;;;29.50;11.80;;;;;;;;;;5094415;28;20480;-65
2021/04/05 04:58:14;;;;;;;31.55;12.02;;;;;;;;;;5094422;28;20016;-66
2021/04/05 05:00:39;;;;;;;27.83;11.73;;;;;;;;;;5094145;28;20024;-66
2021/04/05 05:03:05;;;;;;;37.03;14.32;;;;;;;;;;5093962;28;20051;-66
2021/04/05 05:05:31;;;;;;;30.48;12.52;;;;;;;;;;5093420;28;20016;-66
2021/04/05 05:07:58;;;;;;;26.98;12.00;;;;;;;;;;5094068;28;20560;-66
2021/04/05 05:10:24;;;;;;;30.45;12.48;;;;;;;;;;5093991;28;20023;-66
2021/04/05 05:12:50;;;;;;;28.33;14.20;;;;;;;;;;5093797;28;20016;-66
2021/04/05 05:15:15;;;;;;;44.38;14.95;;;;;;;;;;5075609;28;20038;-66
2021/04/05 05:17:43;;;;;;;39.00;15.65;;;;;;;;;;5075934;28;20023;-66
2021/04/05 05:20:09;;;;;;;37.05;15.48;;;;;;;;;;5093958;28;20012;-66
2021/04/05 05:22:37;;;;;;;31.63;14.05;;;;;;;;;;5093553;28;20085;-66
2021/04/05 05:25:03;;;;;;;29.40;13.00;;;;;;;;;;5093822;28;20024;-66
2021/04/05 05:49:39;;;;;;;27.55;12.20;;;;;;;;;;5419018;22;20061;-66
2021/04/05 05:52:06;;;;;;;26.13;10.93;;;;;;;;;;5018300;28;20030;-66
2021/04/05 05:54:41;;;;;;;23.63;10.23;;;;;;;;;;5032762;28;20063;-66
2021/04/05 05:57:09;;;;;;;20.98;10.82;;;;;;;;;;5015262;28;20100;-66
2021/04/05 05:59:34;;;;;;;16.13;9.10;;;;;;;;;;5032589;28;20014;-66
2021/04/05 06:02:10;;;;;;;21.60;10.18;;;;;;;;;;5032926;28;20426;-66
2021/04/05 06:04:45;;;;;;;20.42;10.20;;;;;;;;;;5032261;28;20132;-66
2021/04/05 06:07:16;;;;;;;18.25;9.82;;;;;;;;;;5032919;28;20013;-66
2021/04/05 06:09:51;;;;;;;15.15;9.07;;;;;;;;;;5032929;28;20052;-66
2021/04/05 06:12:19;;;;;;;13.38;7.53;;;;;;;;;;5032902;28;20148;-66
2021/04/05 06:14:54;;;;;;;13.27;6.85;;;;;;;;;;5032644;28;20498;-66
2021/04/05 06:17:29;;;;;;;14.50;7.13;;;;;;;;;;5015471;28;20422;-66
2021/04/05 06:20:04;;;;;;;11.15;6.60;;;;;;;;;;5032951;28;20016;-66
2021/04/05 06:22:40;;;;;;;9.95;6.05;;;;;;;;;;5032944;28;20013;-66
2021/04/05 06:25:11;;;;;;;12.88;6.78;;;;;;;;;;5034160;28;20018;-66
2021/04/05 06:27:37;;;;;;;9.27;5.82;;;;;;;;;;5022728;23;20513;-66
2021/04/05 06:30:05;;;;;;;9.68;6.22;;;;;;;;;;5032819;28;20069;-66
2021/04/05 06:32:40;;;;;;;8.38;5.60;;;;;;;;;;5014802;28;20025;-66
2021/04/05 06:35:15;;;;;;;11.60;6.40;;;;;;;;;;5032039;28;20064;-65
2021/04/05 06:37:41;;;;;;;9.63;6.45;;;;;;;;;;5032772;28;20351;-66
2021/04/05 06:40:09;;;;;;;9.93;5.80;;;;;;;;;;5032686;28;20010;-66
2021/04/05 06:42:44;;;;;;;9.75;5.28;;;;;;;;;;5032307;28;20478;-66
2021/04/05 06:45:19;;;;;;;10.18;5.65;;;;;;;;;;5031877;28;20028;-66
2021/04/05 06:47:44;;;;;;;8.55;5.25;;;;;;;;;;5032361;28;20018;-66
2021/04/05 06:50:19;;;;;;;8.18;5.05;;;;;;;;;;5032214;28;20040;-66
2021/04/05 06:52:45;;;;;;;8.63;5.25;;;;;;;;;;5032324;28;20046;-66
2021/04/05 06:55:14;;;;;;;6.85;4.75;;;;;;;;;;5032719;28;20104;-66
2021/04/05 06:57:49;;;;;;;8.63;5.10;;;;;;;;;;5032621;28;20033;-66
2021/04/05 07:00:21;;;;;;;8.45;5.55;;;;;;;;;;5032173;28;20056;-66
2021/04/05 07:02:56;;;;;;;11.25;5.20;;;;;;;;;;5032161;28;20027;-66
2021/04/05 07:05:33;;;;;;;7.50;4.15;;;;;;;;;;5031869;28;20010;-66
2021/04/05 07:08:02;;;;;;;7.70;4.50;;;;;;;;;;5032574;28;20018;-66
2021/04/05 07:10:30;;;;;;;8.60;4.82;;;;;;;;;;5014643;28;20088;-66
2021/04/05 07:13:06;;;;;;;10.15;5.60;;;;;;;;;;5032498;28;20025;-66
2021/04/05 07:15:39;;;;;;;10.45;5.70;;;;;;;;;;5032469;28;20021;-66
2021/04/05 07:18:07;;;;;;;10.93;6.03;;;;;;;;;;4998248;28;20017;-66
2021/04/05 07:20:42;;;;;;;9.90;4.50;;;;;;;;;;5032196;28;20025;-66
2021/04/05 07:23:14;;;;;;;6.18;4.32;;;;;;;;;;5032087;28;20024;-66
2021/04/05 07:25:40;;;;;;;7.15;4.50;;;;;;;;;;5032397;28;20363;-67
2021/04/05 07:28:15;;;;;;;8.75;4.50;;;;;;;;;;5014249;28;20060;-66
2021/04/05 07:30:44;;;;;;;7.22;4.10;;;;;;;;;;5014228;28;20033;-66
2021/04/05 07:33:19;;;;;;;10.10;5.38;;;;;;;;;;5032095;28;20233;-66
2021/04/05 07:35:54;;;;;;;10.52;4.57;;;;;;;;;;4997375;28;20013;-66
2021/04/05 07:38:19;;;;;;;10.30;4.65;;;;;;;;;;5032005;28;20203;-66
2021/04/05 07:40:51;;;;;;;7.40;4.03;;;;;;;;;;5031836;28;20046;-66
2021/04/05 07:43:26;;;;;;;6.13;3.22;;;;;;;;;;5032026;28;20025;-66
2021/04/05 07:45:55;;;;;;;5.53;2.92;;;;;;;;;;5014167;28;20021;-66
2021/04/05 07:48:30;;;;;;;8.88;3.70;;;;;;;;;;5014216;28;20025;-67
2021/04/05 07:50:56;;;;;;;5.60;3.30;;;;;;;;;;5031948;28;20045;-67
2021/04/05 07:53:26;;;;;;;5.63;3.63;;;;;;;;;;5031888;28;20009;-67
2021/04/05 07:55:54;;;;;;;4.65;3.20;;;;;;;;;;5014245;28;20025;-67
2021/04/05 07:58:27;;;;;;;3.88;2.85;;;;;;;;;;5035461;28;20048;-67
2021/04/05 08:00:52;;;;;;;5.97;2.65;;;;;;;;;;5001133;28;20515;-67
2021/04/05 08:03:27;;;;;;;5.93;3.05;;;;;;;;;;5035352;28;20041;-67
2021/04/05 08:05:56;;;;;;;6.05;2.72;;;;;;;;;;5034745;28;20145;-67
2021/04/05 08:08:21;;;;;;;;;;;;;;;;;;5035597;28;20451;-67
2021/04/05 08:10:54;;;;;;;3.87;2.27;;;;;;;;;;5034825;28;19948;-67
2021/04/05 08:13:28;;;;;;;4.75;2.50;;;;;;;;;;5000717;28;20263;-67
2021/04/05 08:15:55;;;;;;;3.75;2.10;;;;;;;;;;5017384;28;20607;-67
2021/04/05 08:18:21;;;;;;;5.30;2.80;;;;;;;;;;5035332;28;20501;-67
2021/04/05 08:20:52;;;;;;;4.75;2.40;;;;;;;;;;5017272;28;20021;-67
2021/04/05 08:23:24;;;;;;;5.60;2.55;;;;;;;;;;5034952;28;20064;-67
2021/04/05 08:26:00;;;;;;;4.50;2.47;;;;;;;;;;5036363;28;20010;-66
2021/04/05 08:28:31;;;;;;;3.65;2.20;;;;;;;;;;5034501;28;20052;-67
2021/04/05 08:31:00;;;;;;;3.67;2.22;;;;;;;;;;5034773;28;20068;-67
2021/04/05 08:33:31;;;;;;;5.77;2.30;;;;;;;;;;5034804;28;20028;-67
2021/04/05 08:36:05;;;;;;;4.95;2.72;;;;;;;;;;5033992;28;20105;-67
2021/04/05 08:38:31;;;;;;;3.30;2.50;;;;;;;;;;5034274;28;20013;-67
2021/04/05 08:41:06;;;;;;;5.35;2.80;;;;;;;;;;5034648;28;20032;-67
2021/04/05 08:43:34;;;;;;;3.50;2.38;;;;;;;;;;5034642;28;20021;-67
2021/04/05 08:46:10;;;;;;;4.60;2.55;;;;;;;;;;5034345;28;20025;-67
2021/04/05 08:48:37;;;;;;;3.40;2.00;;;;;;;;;;5034173;28;20054;-67
2021/04/05 08:51:05;;;;;;;4.38;2.65;;;;;;;;;;5016568;28;20486;-66
2021/04/05 08:53:32;;;;;;;4.18;3.00;;;;;;;;;;5034438;28;20017;-66
2021/04/05 08:55:58;;;;;;;5.97;2.60;;;;;;;;;;5016528;28;20394;-66
2021/04/05 08:58:24;;;;;;;5.88;2.53;;;;;;;;;;5016587;28;20025;-66
2021/04/05 09:00:50;;;;;;;9.70;2.50;;;;;;;;;;5034125;28;20017;-67
2021/04/05 09:03:20;;;;;;;8.02;2.60;;;;;;;;;;5034185;28;20096;-66
2021/04/05 09:05:47;;;;;;;5.00;2.38;;;;;;;;;;5033367;28;20044;-67
2021/04/05 09:08:13;;;;;;;6.40;3.15;;;;;;;;;;5033521;28;20025;-66
2021/04/05 09:10:48;;;;;;;4.60;2.53;;;;;;;;;;5016253;28;20040;-67
2021/04/05 09:13:23;;;;;;;6.40;2.88;;;;;;;;;;5033860;28;20069;-66
2021/04/05 09:15:53;;;;;;;8.85;3.38;;;;;;;;;;5016176;28;20141;-67
2021/04/05 09:18:28;;;;;;;5.45;3.20;;;;;;;;;;5033823;28;20029;-67
2021/04/05 09:20:56;;;;;;;5.03;3.17;;;;;;;;;;5033652;28;20109;-67
2021/04/05 09:23:29;;;;;;;9.57;2.97;;;;;;;;;;5033866;28;20401;-67
2021/04/05 09:26:04;;;;;;;3.90;2.30;;;;;;;;;;5033794;28;20021;-67
2021/04/05 09:28:39;;;;;;;4.78;2.88;;;;;;;;;;5015522;28;20045;-66
2021/04/05 09:31:15;;;;;;;4.68;2.53;;;;;;;;;;5033516;28;20025;-67
2021/04/05 09:33:50;;;;;;;5.20;2.55;;;;;;;;;;5033869;28;20025;-67
2021/04/05 09:36:25;;;;;;;3.80;2.20;;;;;;;;;;5032974;28;20153;-67
2021/04/05 09:39:00;;;;;;;2.97;2.35;;;;;;;;;;5033277;28;20501;-67
2021/04/05 09:41:35;;;;;;;5.40;2.50;;;;;;;;;;5033516;28;20116;-67
2021/04/05 09:44:10;;;;;;;4.93;2.78;;;;;;;;;;5033396;28;20017;-67
2021/04/05 09:46:45;;;;;;;4.78;2.65;;;;;;;;;;5033145;28;20021;-68
2021/04/05 09:49:18;;;;;;;2.97;2.25;;;;;;;;;;5033355;28;20482;-67
2021/04/05 09:51:44;;;;;;;10.73;2.50;;;;;;;;;;5033022;28;20028;-67
2021/04/05 09:54:20;;;;;;;4.30;2.33;;;;;;;;;;5033173;28;20017;-67
2021/04/05 09:56:48;;;;;;;4.65;2.47;;;;;;;;;;5033031;28;20097;-67
2021/04/05 09:59:15;;;;;;;4.10;2.13;;;;;;;;;;5015589;28;20028;-67
2021/04/05 10:01:41;;;;;;;4.40;2.38;;;;;;;;;;5032996;28;20014;-67
2021/04/05 10:04:08;;;;;;;2.92;2.10;;;;;;;;;;5015119;28;20488;-67
2021/04/05 10:06:35;;;;;;;4.80;2.50;;;;;;;;;;5032200;28;20108;-67
2021/04/05 10:09:03;;;;;;;3.42;2.70;;;;;;;;;;5015376;28;20029;-67
2021/04/05 10:11:29;;;;;;;4.93;2.30;;;;;;;;;;5032835;28;20382;-66
2021/04/05 10:13:57;;;;;;;3.58;2.38;;;;;;;;;;5032746;28;20558;-67
2021/04/05 10:16:23;;;;;;;3.20;2.05;;;;;;;;;;5032737;28;20028;-67
2021/04/05 10:18:52;;;;;;;4.50;2.17;;;;;;;;;;5032193;28;20017;-67
2021/04/05 10:21:18;;;;;;;4.22;2.00;;;;;;;;;;5032679;28;20017;-66
2021/04/05 10:23:44;;;;;;;9.70;2.92;;;;;;;;;;5032612;28;20021;-66
2021/04/05 10:26:12;;;;;;;6.63;2.55;;;;;;;;;;5015071;28;20025;-66
2021/04/05 10:28:38;;;;;;;3.25;2.17;;;;;;;;;;5032213;28;20124;-66
2021/04/05 10:31:05;;;;;;;5.63;2.65;;;;;;;;;;4998852;28;20185;-66
2021/04/05 10:33:31;;;;;;;5.30;2.10;;;;;;;;;;5032579;28;20537;-66
2021/04/05 10:35:59;;;;;;;3.58;2.40;;;;;;;;;;5014105;28;20425;-66
2021/04/05 10:38:24;;;;;;;5.72;2.97;;;;;;;;;;5032366;28;20088;-66
2021/04/05 10:40:51;;;;;;;7.53;2.35;;;;;;;;;;5032170;28;20148;-67
2021/04/05 10:43:24;;;;;;;3.42;2.15;;;;;;;;;;5014963;28;20100;-66
2021/04/05 10:45:59;;;;;;;4.10;2.22;;;;;;;;;;5032512;28;20397;-67
2021/04/05 10:48:34;;;;;;;6.85;2.70;;;;;;;;;;5032237;28;20010;-67
2021/04/05 10:51:05;;;;;;;5.57;2.80;;;;;;;;;;5014558;28;20056;-67
2021/04/05 10:53:33;;;;;;;4.10;2.22;;;;;;;;;;5032364;28;20021;-66
2021/04/05 10:56:02;;;;;;;9.07;2.40;;;;;;;;;;4998191;28;20020;-67
2021/04/05 10:58:31;;;;;;;3.10;2.13;;;;;;;;;;5032228;28;20022;-66
2021/04/05 11:00:57;;;;;;;7.35;3.30;;;;;;;;;;5032228;28;20785;-66
2021/04/05 11:03:26;;;;;;;5.60;2.88;;;;;;;;;;5032108;28;20025;-66
2021/04/05 11:05:55;;;;;;;7.35;2.28;;;;;;;;;;5031604;28;20494;-66
2021/04/05 11:08:22;;;;;;;5.20;2.30;;;;;;;;;;5032450;28;20018;-66
2021/04/05 11:10:48;;;;;;;5.47;2.47;;;;;;;;;;5031801;28;20359;-66
2021/04/05 11:13:17;;;;;;;5.90;2.28;;;;;;;;;;5031957;28;20057;-66
2021/04/05 11:15:42;;;;;;;5.68;2.45;;;;;;;;;;5031978;28;20009;-66
2021/04/05 11:18:10;;;;;;;4.85;2.70;;;;;;;;;;5014487;28;20018;-66
2021/04/05 11:20:37;;;;;;;3.90;2.28;;;;;;;;;;5032059;28;20021;-66
2021/04/05 11:23:04;;;;;;;7.32;2.33;;;;;;;;;;5031972;28;20017;-66
2021/04/05 11:25:31;;;;;;;6.85;2.42;;;;;;;;;;4998025;28;20029;-65
2021/04/05 11:28:07;;;;;;;4.55;2.90;;;;;;;;;;5013873;28;20152;-66
2021/04/05 11:30:33;;;;;;;4.88;2.67;;;;;;;;;;4998135;28;20119;-66
2021/04/05 11:32:59;;;;;;;5.68;2.97;;;;;;;;;;5035440;28;20020;-66
2021/04/05 11:35:29;;;;;;;4.75;2.60;;;;;;;;;;5017425;28;20394;-66
2021/04/05 11:37:58;;;;;;;7.40;2.88;;;;;;;;;;5017966;28;20025;-66
2021/04/05 11:40:27;;;;;;;6.43;2.80;;;;;;;;;;5017788;28;20021;-66
2021/04/05 11:42:52;;;;;;;5.00;2.83;;;;;;;;;;5035464;28;20029;-66
2021/04/05 11:45:21;;;;;;;9.60;2.60;;;;;;;;;;5018052;28;20025;-66
2021/04/05 11:47:48;;;;;;;9.45;2.45;;;;;;;;;;5035618;28;20017;-66
2021/04/05 11:50:14;;;;;;;5.15;2.88;;;;;;;;;;5035451;28;20470;-66
2021/04/05 11:52:49;;;;;;;4.28;2.50;;;;;;;;;;5001187;28;20486;-66
2021/04/05 11:55:18;;;;;;;6.10;2.92;;;;;;;;;;5035569;28;20025;-67
2021/04/05 11:57:55;;;;;;;6.13;2.95;;;;;;;;;;5035482;28;20041;-67
2021/04/05 12:00:30;;;;;;;5.13;2.28;;;;;;;;;;5035493;28;20014;-67
2021/04/05 12:03:06;;;;;;;4.38;2.13;;;;;;;;;;5035159;28;20052;-67
2021/04/05 12:05:35;;;;;;;3.42;2.35;;;;;;;;;;5034425;28;20018;-67
2021/04/05 12:08:10;;;;;;;5.40;2.30;;;;;;;;;;5035143;28;20026;-67
2021/04/05 12:10:38;;;;;;;3.78;2.00;;;;;;;;;;5034862;28;20508;-67
2021/04/05 12:13:05;;;;;;;3.53;2.15;;;;;;;;;;5017226;28;20026;-67
2021/04/05 12:15:31;;;;;;;7.55;2.70;;;;;;;;;;5035159;28;20029;-66
2021/04/05 12:17:57;;;;;;;8.52;2.38;;;;;;;;;;5016934;28;20032;-66
2021/04/05 12:20:24;;;;;;;4.82;2.17;;;;;;;;;;5035144;28;20475;-66
2021/04/05 12:22:53;;;;;;;7.15;2.22;;;;;;;;;;5017016;28;20021;-66
2021/04/05 12:25:26;;;;;;;7.30;2.40;;;;;;;;;;5017097;28;20018;-66
2021/04/05 12:27:51;;;;;;;6.40;2.10;;;;;;;;;;5034481;28;20148;-67
2021/04/05 12:30:24;;;;;;;6.47;2.55;;;;;;;;;;5034790;28;20101;-66
2021/04/05 12:32:53;;;;;;;8.27;2.50;;;;;;;;;;5034322;28;20081;-66
2021/04/05 12:35:20;;;;;;;7.50;3.07;;;;;;;;;;5016610;28;20070;-66
2021/04/05 12:37:52;;;;;;;5.00;2.38;;;;;;;;;;5034936;28;20050;-66
2021/04/05 12:40:22;;;;;;;5.60;2.22;;;;;;;;;;5034692;28;20025;-66
2021/04/05 12:42:47;;;;;;;4.05;2.10;;;;;;;;;;5033194;28;20045;-66
2021/04/05 12:45:16;;;;;;;5.60;2.03;;;;;;;;;;5034427;28;20045;-67
2021/04/05 12:47:43;;;;;;;6.55;2.35;;;;;;;;;;5034486;28;20017;-66
2021/04/05 12:50:11;;;;;;;3.03;1.83;;;;;;;;;;5016559;28;20029;-66
2021/04/05 12:52:38;;;;;;;12.25;2.08;;;;;;;;;;5034272;28;20471;-67
2021/04/05 12:55:08;;;;;;;10.70;2.20;;;;;;;;;;5016587;28;20418;-67
2021/04/05 12:57:35;;;;;;;9.30;3.60;;;;;;;;;;5016472;28;20364;-66
2021/04/05 13:00:03;;;;;;;2.58;2.00;;;;;;;;;;5016303;28;20390;-67
2021/04/05 13:02:31;;;;;;;5.22;2.50;;;;;;;;;;5016484;28;20033;-67
2021/04/05 13:04:59;;;;;;;6.22;1.92;;;;;;;;;;5033620;28;20104;-66
2021/04/05 13:07:29;;;;;;;3.60;2.22;;;;;;;;;;5016540;28;20017;-66
2021/04/05 13:09:58;;;;;;;4.63;2.53;;;;;;;;;;5034137;28;20072;-66
2021/04/05 13:12:26;;;;;;;6.28;2.83;;;;;;;;;;5033909;28;20020;-66
2021/04/05 13:14:54;;;;;;;6.35;2.10;;;;;;;;;;5033763;28;20152;-66
2021/04/05 13:17:29;;;;;;;6.13;2.22;;;;;;;;;;5034011;28;20033;-66
2021/04/05 13:19:57;;;;;;;4.13;2.00;;;;;;;;;;5016561;28;20029;-66
2021/04/05 13:22:25;;;;;;;8.80;1.90;;;;;;;;;;5016361;28;20022;-66
2021/04/05 13:24:53;;;;;;;12.70;2.03;;;;;;;;;;5033261;28;20442;-66
2021/04/05 13:27:21;;;;;;;6.75;2.25;;;;;;;;;;4999426;28;20413;-66
2021/04/05 13:29:47;;;;;;;2.55;1.92;;;;;;;;;;5033728;28;20013;-66
2021/04/05 13:32:14;;;;;;;5.55;2.40;;;;;;;;;;5034022;28;20024;-66
2021/04/05 13:34:40;;;;;;;3.45;2.13;;;;;;;;;;5032870;28;20470;-66
2021/04/05 13:37:08;;;;;;;2.63;1.98;;;;;;;;;;5015876;28;20066;-66
2021/04/05 13:39:34;;;;;;;5.55;2.25;;;;;;;;;;5033459;28;20017;-66
2021/04/05 13:42:01;;;;;;;4.63;1.75;;;;;;;;;;5033541;28;20055;-66
2021/04/05 13:44:29;;;;;;;4.43;2.08;;;;;;;;;;5033665;28;20040;-66
2021/04/05 13:46:59;;;;;;;10.98;2.55;;;;;;;;;;5033310;28;20067;-66
2021/04/05 13:49:27;;;;;;;14.38;2.38;;;;;;;;;;5016641;28;20359;-66
2021/04/05 13:51:52;;;;;;;7.10;2.10;;;;;;;;;;5033140;28;20026;-66
2021/04/05 13:54:22;;;;;;;8.02;3.15;;;;;;;;;;5033286;28;20074;-66
2021/04/05 13:56:52;;;;;;;4.70;2.28;;;;;;;;;;5015268;28;20025;-66
2021/04/05 13:59:18;;;;;;;9.95;2.53;;;;;;;;;;5033245;28;20108;-66
2021/04/05 14:01:44;;;;;;;6.65;2.63;;;;;;;;;;5015794;28;20018;-66
2021/04/05 14:04:10;;;;;;;6.10;2.30;;;;;;;;;;5033087;28;20091;-66
2021/04/05 14:06:37;;;;;;;4.30;2.22;;;;;;;;;;5032189;28;20054;-66
2021/04/05 14:09:09;;;;;;;3.78;2.22;;;;;;;;;;5032894;28;20029;-66
2021/04/05 14:11:36;;;;;;;5.03;2.25;;;;;;;;;;5032949;28;20043;-66
2021/04/05 14:14:02;;;;;;;2.55;1.95;;;;;;;;;;5032921;28;20444;-66
2021/04/05 14:16:30;;;;;;;7.05;2.42;;;;;;;;;;5015190;28;20009;-66
2021/04/05 14:18:59;;;;;;;6.00;2.45;;;;;;;;;;5015219;28;20018;-66
2021/04/05 14:21:25;;;;;;;2.95;1.95;;;;;;;;;;5032839;28;20009;-65
2021/04/05 14:23:53;;;;;;;7.03;2.50;;;;;;;;;;5015314;28;20428;-66
2021/04/05 14:26:19;;;;;;;6.18;3.17;;;;;;;;;;5032827;28;20031;-66
2021/04/05 14:28:48;;;;;;;6.30;2.20;;;;;;;;;;5014541;28;20128;-66
2021/04/05 14:31:13;;;;;;;3.73;2.50;;;;;;;;;;5015024;28;20033;-66
2021/04/05 14:33:40;;;;;;;6.32;2.28;;;;;;;;;;5032712;28;20013;-66
2021/04/05 14:36:09;;;;;;;5.55;2.33;;;;;;;;;;5031901;28;20013;-66
2021/04/05 14:38:38;;;;;;;9.23;2.70;;;;;;;;;;5032392;28;20088;-66
2021/04/05 14:41:09;;;;;;;5.20;3.03;;;;;;;;;;5014897;28;20097;-66
2021/04/05 14:43:39;;;;;;;5.72;2.67;;;;;;;;;;5032407;28;20037;-66
2021/04/05 14:46:06;;;;;;;6.90;2.40;;;;;;;;;;5015537;28;20017;-65
2021/04/05 14:48:33;;;;;;;7.22;2.60;;;;;;;;;;5032220;28;20490;-66
2021/04/05 14:50:59;;;;;;;2.72;2.20;;;;;;;;;;5032197;28;20065;-66
2021/04/05 14:53:28;;;;;;;8.65;3.63;;;;;;;;;;5014744;28;20052;-66
2021/04/05 14:55:56;;;;;;;4.80;2.55;;;;;;;;;;5032539;28;20025;-66
2021/04/05 14:58:25;;;;;;;7.05;3.25;;;;;;;;;;5032562;28;20017;-65
2021/04/05 15:00:54;;;;;;;46.28;14.65;;;;;;;;;;5032185;28;20017;-66
2021/04/05 15:03:30;;;;;;;8.82;3.47;;;;;;;;;;4998329;28;20116;-66
2021/04/05 15:05:57;;;;;;;9.32;2.90;;;;;;;;;;5014645;28;20530;-67
2021/04/05 15:08:33;;;;;;;46.05;16.25;;;;;;;;;;5018852;28;20048;-66
2021/04/05 15:11:00;;;;;;;6.32;2.88;;;;;;;;;;5018738;28;20481;-66
2021/04/05 15:13:27;;;;;;;4.75;2.53;;;;;;;;;;5018658;28;20020;-66
2021/04/05 15:15:55;;;;;;;4.93;2.38;;;;;;;;;;5035994;28;20144;-66